createdAt,value
2023-05-16T00:02:01.069Z,10.52
2023-05-16T00:04:29.860Z,10.46
2023-05-16T00:06:58.335Z,10.43
2023-05-16T00:09:26.794Z,10.09
2023-05-16T00:11:55.320Z,10.40
2023-05-16T00:14:26.728Z,10.35
2023-05-16T00:16:58.625Z,10.32
2023-05-16T00:19:28.059Z,10.31
2023-05-16T00:21:56.581Z,9.15
2023-05-16T00:24:25.119Z,10.25
2023-05-16T00:26:53.581Z,9.89
2023-05-16T00:29:24.399Z,10.20
2023-05-16T00:31:52.924Z,10.18
2023-05-16T00:34:23.085Z,10.20
2023-05-16T00:36:54.199Z,9.98
2023-05-16T00:39:22.661Z,10.25
2023-05-16T00:41:51.381Z,10.22
2023-05-16T00:44:19.887Z,10.14
2023-05-16T00:46:48.380Z,10.10
2023-05-16T00:49:17.280Z,10.02
2023-05-16T00:51:47.260Z,10.01
2023-05-16T00:54:16.261Z,9.95
2023-05-16T00:56:44.846Z,9.92
2023-05-16T00:59:13.680Z,9.83
2023-05-16T01:01:45.994Z,9.89
2023-05-16T01:04:15.782Z,9.88
2023-05-16T01:06:44.490Z,9.84
2023-05-16T01:09:15.407Z,9.83
2023-05-16T01:11:55.421Z,9.73
2023-05-16T01:14:39.706Z,9.87
2023-05-16T01:17:21.807Z,9.88
2023-05-16T01:20:06.433Z,9.89
2023-05-16T01:22:53.662Z,9.92
2023-05-16T01:25:57.726Z,9.29
2023-05-16T01:28:29.384Z,9.86
2023-05-16T01:30:57.802Z,9.97
2023-05-16T01:33:26.382Z,10.06
2023-05-16T01:36:08.735Z,10.14
2023-05-16T01:38:46.116Z,10.06
2023-05-16T01:41:24.127Z,10.01
2023-05-16T01:44:01.468Z,10.28
2023-05-16T01:46:39.950Z,10.21
2023-05-16T01:49:18.054Z,10.16
2023-05-16T01:51:55.437Z,10.44
2023-05-16T01:54:30.840Z,10.17
2023-05-16T01:57:02.146Z,10.60
2023-05-16T01:59:33.451Z,10.68
2023-05-16T02:02:02.103Z,10.78
2023-05-16T02:04:30.856Z,10.83
2023-05-16T02:07:00.580Z,10.85
2023-05-16T02:09:29.127Z,10.83
2023-05-16T02:11:57.553Z,10.75
2023-05-16T02:14:26.606Z,10.65
2023-05-16T02:16:56.531Z,10.01
2023-05-16T02:19:25.000Z,10.45
2023-05-16T02:21:53.426Z,10.39
2023-05-16T02:24:22.259Z,10.26
2023-05-16T02:26:50.766Z,10.23
2023-05-16T02:29:19.777Z,10.14
2023-05-16T02:31:48.435Z,10.09
2023-05-16T02:34:18.281Z,9.96
2023-05-16T02:36:46.728Z,9.97
2023-05-16T02:39:15.232Z,9.94
2023-05-16T02:41:45.697Z,9.87
2023-05-16T02:44:14.171Z,9.82
2023-05-16T02:46:43.330Z,9.81
2023-05-16T02:49:11.886Z,9.29
2023-05-16T02:51:41.946Z,9.52
2023-05-16T02:54:10.434Z,9.76
2023-05-16T02:56:38.948Z,9.69
2023-05-16T02:59:07.664Z,9.53
2023-05-16T03:01:36.237Z,9.67
2023-05-16T03:04:06.967Z,9.65
2023-05-16T03:06:35.567Z,9.56
2023-05-16T03:09:05.504Z,9.44
2023-05-16T03:11:34.444Z,9.76
2023-05-16T03:14:03.696Z,9.33
2023-05-16T03:16:32.998Z,9.92
2023-05-16T03:19:01.569Z,9.98
2023-05-16T03:21:30.119Z,10.02
2023-05-16T03:23:59.117Z,10.11
2023-05-16T03:26:28.933Z,10.31
2023-05-16T03:29:00.724Z,10.47
2023-05-16T03:31:29.131Z,10.64
2023-05-16T03:33:57.537Z,10.82
2023-05-16T03:36:26.663Z,10.67
2023-05-16T03:38:55.162Z,11.04
2023-05-16T03:41:23.668Z,11.12
2023-05-16T03:43:53.529Z,11.21
2023-05-16T03:46:22.087Z,11.34
2023-05-16T03:48:50.619Z,11.48
2023-05-16T03:54:01.316Z,11.71
2023-05-16T03:56:29.777Z,11.84
2023-05-16T03:58:59.512Z,11.96
2023-05-16T04:01:28.163Z,12.09
2023-05-16T04:03:56.757Z,11.78
2023-05-16T04:09:22.552Z,12.32
2023-05-16T04:11:51.749Z,12.38
2023-05-16T04:14:21.570Z,12.42
2023-05-16T04:16:50.004Z,12.44
2023-05-16T04:19:18.665Z,12.42
2023-05-16T04:21:47.706Z,12.45
2023-05-16T04:24:16.215Z,12.50
2023-05-16T04:26:44.780Z,12.56
2023-05-16T04:29:13.207Z,12.62
2023-05-16T04:31:43.053Z,12.66
2023-05-16T04:34:12.244Z,12.70
2023-05-16T04:36:41.044Z,12.72
2023-05-16T04:39:09.696Z,12.78
2023-05-16T04:41:38.174Z,12.77
2023-05-16T04:44:06.972Z,12.77
2023-05-16T04:46:35.352Z,12.73
2023-05-16T04:49:05.274Z,12.71
2023-05-16T04:51:33.879Z,12.78
2023-05-16T04:54:02.476Z,12.79
2023-05-16T04:56:30.928Z,12.82
2023-05-16T04:58:59.307Z,12.89
2023-05-16T05:01:27.880Z,12.98
2023-05-16T05:03:56.328Z,13.04
2023-05-16T05:06:26.188Z,13.07
2023-05-16T05:08:55.696Z,13.08
2023-05-16T05:11:24.113Z,13.19
2023-05-16T05:13:53.123Z,13.19
2023-05-16T05:16:22.827Z,12.85
2023-05-16T05:18:51.471Z,13.15
2023-05-16T05:21:20.381Z,13.13
2023-05-16T05:23:50.614Z,13.13
2023-05-16T05:26:19.424Z,13.14
2023-05-16T05:28:53.971Z,12.91
2023-05-16T05:31:26.113Z,12.71
2023-05-16T05:33:54.789Z,13.09
2023-05-16T05:36:23.249Z,13.13
2023-05-16T05:38:53.039Z,13.14
2023-05-16T05:41:21.763Z,13.21
2023-05-16T05:43:50.231Z,13.22
2023-05-16T05:46:18.778Z,13.23
2023-05-16T05:48:47.422Z,13.21
2023-05-16T05:51:15.892Z,13.14
2023-05-16T05:53:44.681Z,13.13
2023-05-16T05:56:14.429Z,12.96
2023-05-16T05:58:45.386Z,13.10
2023-05-16T06:01:13.902Z,13.09
2023-05-16T06:03:42.816Z,13.12
2023-05-16T06:06:11.436Z,13.06
2023-05-16T06:08:39.849Z,12.92
2023-05-16T06:11:09.257Z,13.01
2023-05-16T06:13:39.044Z,12.98
2023-05-16T06:16:09.547Z,12.94
2023-05-16T06:18:38.285Z,12.87
2023-05-16T06:21:07.097Z,12.85
2023-05-16T06:23:35.957Z,12.83
2023-05-16T06:26:05.042Z,12.84
2023-05-16T06:28:33.494Z,12.46
2023-05-16T06:31:03.351Z,12.73
2023-05-16T06:33:31.779Z,12.76
2023-05-16T06:36:00.233Z,12.58
2023-05-16T06:38:31.893Z,12.68
2023-05-16T06:41:00.512Z,12.68
2023-05-16T06:43:28.931Z,12.64
2023-05-16T06:45:57.379Z,12.63
2023-05-16T06:48:27.236Z,12.56
2023-05-16T06:50:55.695Z,12.52
2023-05-16T06:53:24.165Z,12.51
2023-05-16T06:55:52.640Z,12.48
2023-05-16T06:58:21.207Z,12.35
2023-05-16T07:00:51.327Z,12.41
2023-05-16T07:03:19.925Z,12.36
2023-05-16T07:05:52.954Z,12.33
2023-05-16T07:08:21.419Z,12.33
2023-05-16T07:10:49.931Z,12.43
2023-05-16T07:13:18.494Z,12.65
2023-05-16T07:15:46.986Z,12.80
2023-05-16T07:18:15.731Z,11.84
2023-05-16T07:20:44.190Z,12.78
2023-05-16T07:23:14.160Z,12.71
2023-05-16T07:25:42.717Z,12.66
2023-05-16T07:28:11.826Z,12.56
2023-05-16T07:30:40.270Z,12.52
2023-05-16T07:33:08.763Z,12.55
2023-05-16T07:35:37.257Z,12.68
2023-05-16T07:38:05.787Z,12.70
2023-05-16T07:40:35.727Z,12.71
2023-05-16T07:43:04.171Z,12.89
2023-05-16T07:45:32.769Z,12.85
2023-05-16T07:48:01.500Z,12.83
2023-05-16T07:50:30.004Z,12.73
2023-05-16T07:52:58.882Z,12.82
2023-05-16T07:55:27.697Z,13.08
2023-05-16T07:57:57.964Z,13.10
2023-05-16T08:00:26.513Z,13.11
2023-05-16T08:02:55.085Z,13.29
2023-05-16T08:05:24.450Z,13.53
2023-05-16T08:07:52.966Z,13.88
2023-05-16T08:10:21.591Z,13.95
2023-05-16T08:12:50.040Z,13.60
2023-05-16T08:15:19.918Z,13.68
2023-05-16T08:17:48.374Z,13.81
2023-05-16T08:20:16.980Z,13.82
2023-05-16T08:22:45.523Z,13.71
2023-05-16T08:25:13.976Z,13.68
2023-05-16T08:27:42.954Z,13.76
2023-05-16T08:30:13.089Z,13.58
2023-05-16T08:32:43.168Z,13.33
2023-05-16T08:35:13.069Z,13.62
2023-05-16T08:37:41.574Z,13.28
2023-05-16T08:40:12.257Z,13.57
2023-05-16T08:42:43.329Z,13.84
2023-05-16T08:45:13.703Z,13.89
2023-05-16T08:47:46.501Z,13.76
2023-05-16T08:50:17.240Z,13.58
2023-05-16T08:52:53.413Z,13.63
2023-05-16T08:55:23.353Z,13.66
2023-05-16T08:57:52.495Z,13.66
2023-05-16T09:00:23.115Z,13.76
2023-05-16T09:02:54.368Z,13.96
2023-05-16T09:05:25.336Z,13.91
2023-05-16T09:07:53.908Z,14.33
2023-05-16T09:10:22.980Z,14.33
2023-05-16T09:12:51.824Z,14.22
2023-05-16T09:15:21.710Z,14.34
2023-05-16T09:17:50.423Z,14.36
2023-05-16T09:20:22.078Z,14.61
2023-05-16T09:22:56.211Z,14.79
2023-05-16T09:27:59.168Z,14.61
2023-05-16T09:30:31.827Z,14.91
2023-05-16T09:33:00.844Z,14.90
2023-05-16T09:35:43.918Z,14.89
2023-05-16T09:38:18.186Z,14.80
2023-05-16T09:40:47.385Z,14.69
2023-05-16T09:43:18.422Z,14.32
2023-05-16T09:45:49.185Z,14.65
2023-05-16T09:48:18.869Z,14.72
2023-05-16T09:50:54.554Z,14.65
2023-05-16T09:53:30.944Z,14.14
2023-05-16T09:56:07.975Z,14.64
2023-05-16T09:58:38.994Z,14.62
2023-05-16T10:01:08.806Z,14.64
2023-05-16T10:03:40.996Z,14.72
2023-05-16T10:06:13.767Z,14.75
2023-05-16T10:08:44.964Z,14.97
2023-05-16T10:11:15.316Z,14.71
2023-05-16T10:13:44.969Z,15.19
2023-05-16T10:16:15.828Z,15.20
2023-05-16T10:18:45.027Z,15.12
2023-05-16T10:21:19.143Z,15.06
2023-05-16T10:23:52.754Z,14.78
2023-05-16T10:26:23.690Z,14.78
2023-05-16T10:28:52.710Z,14.79
2023-05-16T10:31:22.612Z,14.91
2023-05-16T10:33:51.731Z,15.14
2023-05-16T10:36:22.154Z,15.28
2023-05-16T10:38:52.213Z,15.13
2023-05-16T10:41:22.084Z,15.03
2023-05-16T10:43:58.941Z,15.22
2023-05-16T10:46:30.400Z,15.87
2023-05-16T10:48:59.248Z,15.93
2023-05-16T10:51:46.977Z,16.10
2023-05-16T10:54:18.279Z,15.86
2023-05-16T10:56:57.576Z,15.71
2023-05-16T10:59:28.553Z,15.58
2023-05-16T11:01:57.798Z,15.22
2023-05-16T11:04:51.391Z,15.30
2023-05-16T11:07:24.571Z,15.19
2023-05-16T11:10:09.677Z,15.03
2023-05-16T11:12:47.139Z,15.14
2023-05-16T11:15:26.370Z,15.18
2023-05-16T11:18:07.469Z,14.89
2023-05-16T11:20:38.513Z,14.96
2023-05-16T11:23:27.845Z,14.59
2023-05-16T11:26:00.687Z,14.56
2023-05-16T11:28:30.206Z,14.60
2023-05-16T11:31:02.274Z,14.62
2023-05-16T11:33:35.670Z,14.55
2023-05-16T11:38:44.010Z,14.66
2023-05-16T11:41:15.465Z,14.63
2023-05-16T11:43:46.718Z,14.94
2023-05-16T11:46:17.116Z,15.27
2023-05-16T11:48:47.273Z,15.52
2023-05-16T11:51:20.248Z,15.78
2023-05-16T11:53:51.144Z,15.99
2023-05-16T11:56:19.847Z,16.19
2023-05-16T11:58:48.516Z,16.13
2023-05-16T12:01:17.371Z,15.86
2023-05-16T12:03:46.000Z,15.70
2023-05-16T12:06:16.554Z,15.39
2023-05-16T12:08:53.151Z,15.33
2023-05-16T12:14:04.634Z,15.10
2023-05-16T12:16:34.297Z,14.95
2023-05-16T12:19:03.212Z,15.26
2023-05-16T12:21:32.129Z,14.93
2023-05-16T12:24:02.224Z,15.10
2023-05-16T12:26:33.524Z,15.25
2023-05-16T12:29:03.596Z,15.54
2023-05-16T12:31:33.484Z,15.94
2023-05-16T12:34:02.114Z,15.97
2023-05-16T12:36:35.462Z,16.64
2023-05-16T12:39:09.450Z,16.92
2023-05-16T12:41:43.249Z,15.33
2023-05-16T12:44:19.432Z,16.26
2023-05-16T12:46:52.791Z,16.28
2023-05-16T12:49:23.102Z,16.31
2023-05-16T12:51:53.902Z,16.12
2023-05-16T12:54:23.831Z,16.28
2023-05-16T12:56:52.275Z,16.27
2023-05-16T12:59:20.767Z,16.23
2023-05-16T13:01:49.319Z,16.35
2023-05-16T13:04:20.140Z,16.43
2023-05-16T13:06:59.083Z,16.37
2023-05-16T13:09:32.871Z,15.98
2023-05-16T13:12:01.969Z,15.94
2023-05-16T13:14:31.864Z,15.85
2023-05-16T13:17:00.630Z,16.14
2023-05-16T13:19:31.726Z,16.42
2023-05-16T13:22:00.422Z,16.71
2023-05-16T13:24:30.760Z,16.81
2023-05-16T13:26:59.620Z,17.06
2023-05-16T13:29:28.976Z,16.94
2023-05-16T13:31:57.624Z,17.01
2023-05-16T13:34:26.121Z,17.12
2023-05-16T13:36:55.069Z,16.96
2023-05-16T13:39:24.072Z,16.52
2023-05-16T13:41:54.514Z,15.63
2023-05-16T13:44:23.543Z,16.09
2023-05-16T13:46:52.106Z,15.90
2023-05-16T13:49:20.880Z,15.87
2023-05-16T13:51:49.386Z,15.87
2023-05-16T13:54:18.212Z,16.09
2023-05-16T13:56:47.115Z,16.01
2023-05-16T13:59:23.992Z,15.89
2023-05-16T14:02:06.149Z,15.92
2023-05-16T14:04:34.805Z,15.98
2023-05-16T14:07:03.412Z,15.99
2023-05-16T14:09:35.005Z,15.83
2023-05-16T14:12:04.205Z,15.34
2023-05-16T14:14:34.176Z,15.58
2023-05-16T14:17:03.958Z,14.00
2023-05-16T14:19:32.728Z,14.87
2023-05-16T14:22:01.387Z,14.75
2023-05-16T14:24:32.288Z,13.88
2023-05-16T14:27:01.182Z,14.36
2023-05-16T14:29:29.706Z,14.35
2023-05-16T14:32:01.527Z,14.56
2023-05-16T14:34:30.322Z,14.51
2023-05-16T14:36:58.765Z,14.33
2023-05-16T14:39:27.522Z,14.12
2023-05-16T14:41:56.267Z,14.55
2023-05-16T14:44:24.915Z,14.69
2023-05-16T14:46:53.444Z,14.90
2023-05-16T14:49:23.299Z,14.94
2023-05-16T14:51:51.804Z,14.85
2023-05-16T14:54:20.532Z,14.63
2023-05-16T14:56:49.010Z,15.00
2023-05-16T14:59:17.455Z,14.61
2023-05-16T15:01:48.888Z,15.14
2023-05-16T15:04:17.506Z,15.03
2023-05-16T15:06:47.432Z,15.02
2023-05-16T15:09:15.917Z,15.02
2023-05-16T15:11:44.572Z,15.05
2023-05-16T15:14:13.187Z,14.90
2023-05-16T15:16:44.145Z,14.65
2023-05-16T15:19:12.775Z,14.56
2023-05-16T15:21:41.718Z,14.75
2023-05-16T15:24:14.391Z,14.76
2023-05-16T15:26:42.981Z,14.71
2023-05-16T15:29:11.401Z,14.38
2023-05-16T15:31:40.086Z,14.56
2023-05-16T15:34:08.976Z,14.82
2023-05-16T15:36:37.518Z,15.00
2023-05-16T15:39:06.355Z,15.31
2023-05-16T15:41:56.985Z,15.18
2023-05-16T15:44:24.905Z,15.25
2023-05-16T15:47:09.614Z,15.34
2023-05-16T15:49:38.351Z,15.33
2023-05-16T15:52:07.190Z,15.60
2023-05-16T15:54:38.422Z,15.48
2023-05-16T15:57:08.475Z,15.65
2023-05-16T15:59:36.929Z,15.55
2023-05-16T16:02:05.707Z,15.61
2023-05-16T16:04:34.204Z,15.76
2023-05-16T16:07:02.764Z,15.76
2023-05-16T16:09:31.315Z,15.77
2023-05-16T16:11:59.848Z,15.82
2023-05-16T16:14:29.783Z,15.90
2023-05-16T16:16:58.332Z,15.88
2023-05-16T16:19:26.967Z,15.85
2023-05-16T16:21:55.490Z,15.87
2023-05-16T16:24:23.980Z,15.74
2023-05-16T16:26:52.605Z,15.67
2023-05-16T16:29:21.143Z,15.60
2023-05-16T16:31:51.019Z,14.43
2023-05-16T16:34:21.571Z,15.35
2023-05-16T16:36:51.619Z,15.93
2023-05-16T16:39:20.159Z,15.64
2023-05-16T16:42:11.715Z,16.07
2023-05-16T16:44:40.658Z,16.05
2023-05-16T16:47:15.301Z,15.43
2023-05-16T16:49:43.820Z,15.92
2023-05-16T16:52:12.576Z,15.97
2023-05-16T16:54:42.231Z,16.02
2023-05-16T16:57:10.910Z,15.76
2023-05-16T16:59:39.496Z,16.02
2023-05-16T17:02:08.603Z,16.14
2023-05-16T17:04:38.509Z,16.05
2023-05-16T17:07:07.671Z,16.01
2023-05-16T17:09:39.443Z,16.23
2023-05-16T17:12:14.922Z,15.14
2023-05-16T17:14:43.685Z,16.36
2023-05-16T17:17:12.183Z,16.61
2023-05-16T17:19:42.105Z,16.14
2023-05-16T17:22:13.949Z,15.82
2023-05-16T17:24:42.630Z,17.19
2023-05-16T17:27:12.043Z,17.41
2023-05-16T17:29:43.659Z,17.55
2023-05-16T17:32:14.137Z,17.60
2023-05-16T17:34:44.522Z,17.79
2023-05-16T17:37:13.151Z,17.48
2023-05-16T17:39:42.225Z,17.69
2023-05-16T17:42:12.038Z,17.72
2023-05-16T17:44:41.206Z,17.64
2023-05-16T17:47:09.749Z,17.47
2023-05-16T17:49:38.486Z,17.21
2023-05-16T17:52:09.035Z,15.66
2023-05-16T17:54:37.614Z,16.70
2023-05-16T17:57:06.932Z,16.74
2023-05-16T17:59:35.477Z,16.22
2023-05-16T18:02:04.573Z,16.39
2023-05-16T18:04:34.319Z,16.35
2023-05-16T18:07:04.208Z,16.26
2023-05-16T18:09:34.146Z,16.11
2023-05-16T18:12:04.539Z,15.91
2023-05-16T18:14:37.779Z,15.63
2023-05-16T18:17:06.809Z,15.14
2023-05-16T18:19:35.683Z,15.08
2023-05-16T18:22:07.053Z,14.45
2023-05-16T18:24:40.288Z,14.60
2023-05-16T18:27:09.181Z,13.67
2023-05-16T18:29:37.799Z,14.03
2023-05-16T18:32:07.249Z,14.04
2023-05-16T18:34:35.943Z,14.08
2023-05-16T18:39:49.614Z,13.80
2023-05-16T18:42:18.784Z,13.58
2023-05-16T18:44:47.741Z,13.15
2023-05-16T18:47:16.643Z,13.11
2023-05-16T18:49:45.650Z,12.67
2023-05-16T18:52:15.062Z,12.74
2023-05-16T18:54:43.494Z,12.43
2023-05-16T18:57:14.572Z,12.17
2023-05-16T18:59:43.020Z,12.27
2023-05-16T19:02:11.535Z,12.16
2023-05-16T19:04:40.616Z,12.04
2023-05-16T19:07:09.521Z,11.96
2023-05-16T19:09:38.090Z,11.88
2023-05-16T19:12:09.216Z,11.58
2023-05-16T19:15:12.373Z,11.56
2023-05-16T19:17:42.383Z,11.58
2023-05-16T19:20:11.776Z,11.53
2023-05-16T19:22:40.402Z,11.13
2023-05-16T19:25:10.108Z,11.44
2023-05-16T19:27:38.633Z,11.40
2023-05-16T19:30:10.307Z,11.37
2023-05-16T19:32:38.974Z,11.12
2023-05-16T19:35:08.292Z,11.32
2023-05-16T19:37:37.154Z,11.20
2023-05-16T19:40:06.648Z,11.24
2023-05-16T19:42:35.187Z,11.02
2023-05-16T19:45:03.810Z,11.17
2023-05-16T19:47:33.786Z,11.13
2023-05-16T19:50:02.449Z,11.08
2023-05-16T19:52:31.085Z,11.03
2023-05-16T19:54:59.630Z,10.99
2023-05-16T19:57:28.218Z,10.95
2023-05-16T19:59:57.027Z,10.89
2023-05-16T20:02:25.555Z,10.47
2023-05-16T20:04:55.495Z,10.53
2023-05-16T20:07:24.283Z,10.70
2023-05-16T20:09:52.826Z,10.61
2023-05-16T20:12:21.253Z,10.52
2023-05-16T20:14:49.723Z,10.43
2023-05-16T20:17:18.237Z,10.28
2023-05-16T20:19:47.079Z,10.26
2023-05-16T20:22:17.238Z,10.07
2023-05-16T20:24:46.005Z,10.12
2023-05-16T20:27:14.446Z,10.12
2023-05-16T20:29:42.906Z,10.14
2023-05-16T20:32:11.445Z,10.34
2023-05-16T20:34:41.658Z,10.06
2023-05-16T20:37:10.222Z,10.29
2023-05-16T20:39:40.047Z,10.32
2023-05-16T20:42:10.890Z,10.25
2023-05-16T20:44:39.597Z,10.20
2023-05-16T20:47:08.847Z,10.13
2023-05-16T20:49:37.413Z,10.14
2023-05-16T20:52:06.700Z,10.20
2023-05-16T20:54:35.565Z,10.21
2023-05-16T20:57:07.279Z,10.26
2023-05-16T20:59:37.343Z,9.90
2023-05-16T21:02:09.661Z,10.30
2023-05-16T21:04:38.386Z,10.27
2023-05-16T21:07:08.459Z,10.29
2023-05-16T21:09:37.934Z,10.24
2023-05-16T21:12:08.722Z,10.24
2023-05-16T21:14:37.178Z,10.17
2023-05-16T21:17:06.026Z,10.09
2023-05-16T21:19:35.432Z,10.07
2023-05-16T21:22:04.304Z,10.01
2023-05-16T21:24:35.271Z,9.62
2023-05-16T21:27:04.312Z,9.95
2023-05-16T21:29:34.272Z,9.89
2023-05-16T21:32:02.772Z,9.89
2023-05-16T21:34:31.235Z,9.98
2023-05-16T21:37:00.018Z,9.97
2023-05-16T21:39:28.604Z,9.95
2023-05-16T21:41:57.153Z,9.91
2023-05-16T21:44:25.651Z,9.88
2023-05-16T21:46:55.501Z,9.91
2023-05-16T21:49:23.973Z,9.81
2023-05-16T21:51:52.453Z,9.76
2023-05-16T21:54:20.885Z,9.82
2023-05-16T21:56:49.307Z,9.95
2023-05-16T21:59:17.740Z,9.92
2023-05-16T22:01:46.263Z,9.91
2023-05-16T22:04:16.137Z,9.92
2023-05-16T22:06:44.655Z,9.90
2023-05-16T22:09:13.259Z,9.81
2023-05-16T22:11:41.863Z,9.74
2023-05-16T22:14:10.439Z,9.67
2023-05-16T22:16:39.036Z,9.63
2023-05-16T22:19:08.995Z,9.55
2023-05-16T22:21:38.989Z,9.57
2023-05-16T22:24:08.340Z,9.43
2023-05-16T22:26:36.868Z,9.30
2023-05-16T22:29:05.294Z,9.21
2023-05-16T22:31:33.728Z,9.24
2023-05-16T22:34:02.817Z,9.15
2023-05-16T22:36:31.377Z,8.90
2023-05-16T22:39:01.209Z,9.01
2023-05-16T22:41:29.712Z,8.94
2023-05-16T22:43:58.213Z,8.43
2023-05-16T22:46:26.737Z,8.91
2023-05-16T22:48:55.273Z,8.87
2023-05-16T22:51:23.784Z,8.76
2023-05-16T22:53:52.233Z,8.87
2023-05-16T22:56:22.140Z,8.83
2023-05-16T22:58:50.608Z,8.51
2023-05-16T23:01:19.087Z,8.74
2023-05-16T23:03:47.587Z,8.71
2023-05-16T23:06:16.767Z,8.70
2023-05-16T23:08:45.190Z,8.61
2023-05-16T23:11:13.718Z,8.56
2023-05-16T23:13:43.542Z,8.53
2023-05-16T23:16:12.011Z,8.51
2023-05-16T23:18:40.672Z,8.44
2023-05-16T23:21:09.552Z,8.35
2023-05-16T23:23:38.011Z,7.61
2023-05-16T23:26:06.649Z,8.22
2023-05-16T23:28:35.070Z,8.17
2023-05-16T23:31:04.872Z,8.06
2023-05-16T23:33:33.803Z,8.10
2023-05-16T23:36:02.237Z,8.04
2023-05-16T23:38:30.744Z,7.96
2023-05-16T23:40:59.383Z,7.91
2023-05-16T23:43:27.825Z,7.84
2023-05-16T23:45:56.236Z,7.70
2023-05-16T23:48:26.255Z,7.66
2023-05-16T23:50:54.720Z,7.51
2023-05-16T23:53:28.008Z,7.50
2023-05-16T23:55:56.629Z,7.05
2023-05-16T23:58:25.258Z,7.18
